Time;durP1;ratioP1;P1;durP2;ratioP2;P2;SDS_P1;SDS_P2;PMS_P1;PMS_P2;Temp;Humidity;BMP_temperature;BMP_pressure;BME280_temperature;BME280_humidity;BME280_pressure;Samples;Min_cycle;Max_cycle;Signal;HPM_P1;HPM_P2
2021/06/14 00:02:03;;;;;;;13.10;8.00;;;14.90;99.90;;;;;;5026476;28;20037;-47
2021/06/14 00:04:31;;;;;;;12.68;7.43;;;14.90;99.90;;;;;;5029145;28;20041;-50
2021/06/14 00:06:57;;;;;;;14.15;6.95;;;14.80;99.90;;;;;;5032309;28;20065;-49
2021/06/14 00:09:24;;;;;;;14.43;8.15;;;14.80;99.90;;;;;;5028743;28;20053;-47
2021/06/14 00:11:54;;;;;;;13.57;7.90;;;14.80;99.90;;;;;;5027291;28;20094;-52
2021/06/14 00:14:22;;;;;;;13.10;7.03;;;14.80;99.90;;;;;;5028004;28;20334;-48
2021/06/14 00:16:50;;;;;;;12.20;7.15;;;14.70;99.90;;;;;;5027806;28;20084;-47
2021/06/14 00:19:17;;;;;;;13.02;7.50;;;14.70;99.90;;;;;;5024662;28;20042;-49
2021/06/14 00:21:43;;;;;;;8.85;6.88;;;14.60;99.90;;;;;;5028000;28;20056;-52
2021/06/14 00:24:09;;;;;;;15.15;7.50;;;14.60;99.90;;;;;;5022169;28;20057;-48
2021/06/14 00:26:35;;;;;;;13.32;7.10;;;14.60;99.90;;;;;;5027795;28;20087;-49
2021/06/14 00:29:02;;;;;;;13.43;7.32;;;14.60;99.90;;;;;;5025584;28;20439;-52
2021/06/14 00:31:29;;;;;;;11.73;6.60;;;14.60;99.90;;;;;;5026560;28;20072;-53
2021/06/14 00:33:56;;;;;;;15.32;7.82;;;14.60;99.90;;;;;;5032885;28;20069;-48
2021/06/14 00:36:22;;;;;;;12.02;8.07;;;14.50;99.90;;;;;;5026030;28;20053;-45
2021/06/14 00:38:48;;;;;;;14.93;7.93;;;14.50;99.90;;;;;;5027544;28;20041;-45
2021/06/14 00:41:14;;;;;;;12.00;7.50;;;14.60;99.90;;;;;;5025379;28;20389;-51
2021/06/14 00:43:43;;;;;;;14.77;7.70;;;14.50;99.90;;;;;;5027009;28;20042;-47
2021/06/14 00:46:09;;;;;;;12.63;7.28;;;14.60;99.90;;;;;;5031365;28;20762;-45
2021/06/14 00:48:36;;;;;;;13.70;7.15;;;14.50;99.90;;;;;;5024355;28;20070;-46
2021/06/14 00:51:07;;;;;;;14.45;8.48;;;14.50;99.90;;;;;;5024605;28;20037;-49
2021/06/14 00:53:40;;;;;;;13.10;7.45;;;14.50;99.90;;;;;;5024089;28;20053;-45
2021/06/14 00:56:14;;;;;;;13.35;7.50;;;14.40;99.90;;;;;;5027353;28;20067;-47
2021/06/14 00:58:43;;;;;;;13.57;7.40;;;14.40;99.90;;;;;;5034998;28;20130;-44
2021/06/14 01:01:10;;;;;;;13.93;7.97;;;14.40;99.90;;;;;;5027311;28;20057;-45
2021/06/14 01:03:39;;;;;;;11.90;8.23;;;14.30;99.90;;;;;;5024821;28;20115;-49
2021/06/14 01:06:08;;;;;;;12.05;8.10;;;14.20;99.90;;;;;;5027322;28;20045;-49
2021/06/14 01:08:42;;;;;;;15.60;8.30;;;14.20;99.90;;;;;;5023113;28;20141;-49
2021/06/14 01:11:39;;;;;;;14.10;7.72;;;14.20;99.90;;;;;;5026124;28;20053;-46
2021/06/14 01:14:44;;;;;;;12.25;8.00;;;14.20;99.90;;;;;;5021757;28;20062;-47
2021/06/14 01:17:25;;;;;;;12.35;8.60;;;14.20;99.90;;;;;;5024410;28;20045;-47
2021/06/14 01:20:10;;;;;;;12.52;8.05;;;14.10;99.90;;;;;;5019230;28;20054;-45
2021/06/14 01:22:50;;;;;;;12.82;8.05;;;14.10;99.90;;;;;;5025144;28;20545;-45
2021/06/14 01:25:27;;;;;;;15.73;8.52;;;14.00;99.90;;;;;;5041145;28;20171;-45
2021/06/14 01:27:58;;;;;;;13.40;8.38;;;14.00;99.90;;;;;;5016960;28;20325;-48
2021/06/14 01:30:29;;;;;;;14.35;8.65;;;13.90;99.90;;;;;;5024930;28;20045;-46
2021/06/14 01:32:57;;;;;;;13.80;8.25;;;13.90;99.90;;;;;;5019662;28;20046;-48
2021/06/14 01:35:39;;;;;;;10.40;8.35;;;13.90;99.90;;;;;;5025809;28;20041;-51
2021/06/14 01:38:08;;;;;;;12.05;8.65;;;13.90;99.90;;;;;;5032872;28;20041;-46
2021/06/14 01:40:36;;;;;;;14.10;8.38;;;13.80;99.90;;;;;;5032573;28;20614;-46
2021/06/14 01:43:06;;;;;;;15.15;8.85;;;13.80;99.90;;;;;;5026449;28;20041;-52
2021/06/14 01:45:36;;;;;;;19.38;9.32;;;13.80;99.90;;;;;;5024137;28;20434;-51
2021/06/14 01:48:04;;;;;;;14.20;9.20;;;13.80;99.90;;;;;;5005608;28;20053;-48
2021/06/14 01:50:31;;;;;;;12.98;8.77;;;13.80;99.90;;;;;;5039580;28;20937;-46
2021/06/14 01:52:58;;;;;;;14.05;8.93;;;13.70;99.90;;;;;;5026049;28;20676;-47
2021/06/14 01:55:26;;;;;;;13.45;9.13;;;13.70;99.90;;;;;;5025630;28;20042;-51
2021/06/14 01:57:59;;;;;;;14.00;9.25;;;13.60;99.90;;;;;;5028105;28;20067;-47
2021/06/14 02:00:37;;;;;;;15.50;9.13;;;13.60;99.90;;;;;;5024886;28;20050;-46
2021/06/14 02:03:20;;;;;;;15.23;9.57;;;13.60;99.90;;;;;;5022958;28;20048;-45
2021/06/14 02:05:53;;;;;;;14.23;9.13;;;13.60;99.90;;;;;;5023798;28;20064;-44
2021/06/14 02:08:22;;;;;;;16.70;10.02;;;13.60;99.90;;;;;;5021250;28;20329;-44
2021/06/14 02:10:49;;;;;;;13.55;8.73;;;13.60;99.90;;;;;;5023420;28;20037;-46
2021/06/14 02:13:20;;;;;;;12.80;9.02;;;13.60;99.90;;;;;;5018691;28;20078;-52
2021/06/14 02:15:47;;;;;;;15.15;9.13;;;13.50;99.90;;;;;;5023255;28;20037;-52
2021/06/14 02:18:17;;;;;;;13.07;9.15;;;13.50;99.90;;;;;;5029953;28;20045;-47
2021/06/14 02:20:47;;;;;;;15.82;9.45;;;13.50;99.90;;;;;;5030867;28;20494;-48
2021/06/14 02:23:14;;;;;;;11.38;8.75;;;13.50;99.90;;;;;;5023425;28;20033;-47
2021/06/14 02:25:43;;;;;;;13.27;8.38;;;13.40;99.90;;;;;;5023168;28;20068;-49
2021/06/14 02:28:09;;;;;;;12.57;9.82;;;13.40;99.90;;;;;;5028399;28;20486;-47
2021/06/14 02:30:37;;;;;;;14.02;9.15;;;13.40;99.90;;;;;;5023051;28;20448;-50
2021/06/14 02:33:07;;;;;;;15.50;9.10;;;13.40;99.90;;;;;;5012760;28;20042;-57
2021/06/14 02:35:36;;;;;;;14.00;9.18;;;13.30;99.90;;;;;;5031960;28;20110;-45
2021/06/14 02:38:06;;;;;;;22.98;9.82;;;13.30;99.90;;;;;;5017691;28;20046;-45
2021/06/14 02:40:34;;;;;;;14.63;9.00;;;13.30;99.90;;;;;;5022171;28;20056;-44
2021/06/14 02:43:10;;;;;;;12.93;9.20;;;13.30;99.90;;;;;;5022965;28;20119;-49
2021/06/14 02:45:39;;;;;;;14.05;9.32;;;13.30;99.90;;;;;;5023502;28;20041;-47
2021/06/14 02:48:13;;;;;;;15.40;10.32;;;13.20;99.90;;;;;;5024209;28;20037;-50
2021/06/14 02:50:41;;;;;;;16.23;10.98;;;13.20;99.90;;;;;;5014251;28;20108;-46
2021/06/14 02:53:12;;;;;;;13.98;10.30;;;13.20;99.90;;;;;;5023225;28;20041;-45
2021/06/14 02:55:55;;;;;;;16.10;10.35;;;13.20;99.90;;;;;;5025376;28;20056;-48
2021/06/14 02:58:26;;;;;;;13.88;10.60;;;13.20;99.90;;;;;;5024232;28;20073;-53
2021/06/14 03:00:54;;;;;;;14.60;10.15;;;13.20;99.90;;;;;;5022852;28;20379;-47
2021/06/14 03:03:21;;;;;;;17.33;11.30;;;13.10;99.90;;;;;;5018192;28;20534;-46
2021/06/14 03:05:48;;;;;;;17.15;11.02;;;13.10;99.90;;;;;;5020494;28;20146;-44
2021/06/14 03:08:17;;;;;;;15.20;10.70;;;13.10;99.90;;;;;;5021735;28;20080;-47
2021/06/14 03:10:45;;;;;;;15.82;10.50;;;13.10;99.90;;;;;;5022558;28;20497;-50
2021/06/14 03:13:15;;;;;;;15.05;10.77;;;13.10;99.90;;;;;;5021599;28;20044;-52
2021/06/14 03:15:42;;;;;;;16.80;10.30;;;13.10;99.90;;;;;;5023922;28;20153;-52
2021/06/14 03:18:10;;;;;;;16.92;11.30;;;13.10;99.90;;;;;;5023054;28;20045;-47
2021/06/14 03:20:39;;;;;;;13.63;11.27;;;13.10;99.90;;;;;;5023518;28;20045;-48
2021/06/14 03:23:09;;;;;;;16.02;10.90;;;13.00;99.90;;;;;;5007552;28;20038;-46
2021/06/14 03:25:37;;;;;;;18.55;11.48;;;13.00;99.90;;;;;;5015968;28;20383;-48
2021/06/14 03:28:06;;;;;;;17.85;11.07;;;13.00;99.90;;;;;;5023035;28;20046;-53
2021/06/14 03:30:34;;;;;;;16.90;10.90;;;13.00;99.90;;;;;;5023981;28;20049;-50
2021/06/14 03:33:04;;;;;;;16.02;10.70;;;13.00;99.90;;;;;;5025821;28;20465;-47
2021/06/14 03:35:32;;;;;;;16.65;10.98;;;13.00;99.90;;;;;;5024642;28;20076;-52
2021/06/14 03:38:01;;;;;;;16.17;11.18;;;13.00;99.90;;;;;;5029043;28;20041;-46
2021/06/14 03:40:27;;;;;;;12.60;10.50;;;13.10;99.90;;;;;;5025188;28;20039;-50
2021/06/14 03:43:01;;;;;;;19.13;11.57;;;13.00;99.90;;;;;;5023285;28;20140;-46
2021/06/14 03:45:28;;;;;;;14.90;11.98;;;13.10;99.90;;;;;;5024312;28;20049;-53
2021/06/14 03:47:55;;;;;;;18.48;10.68;;;13.10;99.90;;;;;;5023587;28;20083;-49
2021/06/14 03:50:27;;;;;;;16.45;11.60;;;13.10;99.90;;;;;;5023439;28;20143;-45
2021/06/14 03:52:56;;;;;;;16.45;11.25;;;13.10;99.90;;;;;;5025087;28;20038;-48
2021/06/14 03:55:23;;;;;;;14.77;10.65;;;13.10;99.90;;;;;;5024492;28;20493;-48
2021/06/14 03:57:49;;;;;;;15.65;11.18;;;13.20;99.90;;;;;;5023658;28;20041;-50
2021/06/14 04:00:16;;;;;;;18.23;11.52;;;13.20;99.90;;;;;;5021732;28;21774;-50
2021/06/14 04:02:43;;;;;;;17.27;11.63;;;13.20;99.90;;;;;;5023104;28;20074;-53
2021/06/14 04:05:16;;;;;;;16.70;12.25;;;13.20;99.90;;;;;;5037461;28;20061;-48
2021/06/14 04:08:06;;;;;;;18.40;12.52;;;13.30;99.90;;;;;;5002367;28;20133;-49
2021/06/14 04:10:35;;;;;;;18.75;12.52;;;13.30;99.90;;;;;;5000129;28;20060;-48
2021/06/14 04:13:01;;;;;;;21.52;13.88;;;13.30;99.90;;;;;;4999479;28;20103;-51
2021/06/14 04:15:27;;;;;;;19.23;15.02;;;13.40;99.90;;;;;;5004346;28;20097;-47
2021/06/14 04:17:53;;;;;;;21.63;13.70;;;13.50;99.90;;;;;;5001010;28;20050;-49
2021/06/14 04:20:22;;;;;;;16.27;13.07;;;13.50;99.90;;;;;;5001578;28;20065;-46
2021/06/14 04:22:48;;;;;;;20.33;14.02;;;13.60;99.90;;;;;;5001111;28;20046;-45
2021/06/14 04:25:15;;;;;;;20.00;14.00;;;13.60;99.90;;;;;;5000986;28;20065;-46
2021/06/14 04:27:41;;;;;;;19.23;13.80;;;13.70;99.90;;;;;;5003792;28;20478;-53
2021/06/14 04:30:07;;;;;;;16.80;13.57;;;13.80;99.90;;;;;;4997014;28;20057;-47
2021/06/14 04:32:34;;;;;;;20.95;14.23;;;13.80;99.90;;;;;;5002889;28;20046;-46
2021/06/14 04:35:00;;;;;;;19.63;14.10;;;13.90;99.90;;;;;;5000179;28;20088;-48
2021/06/14 04:37:26;;;;;;;18.85;14.02;;;14.00;99.90;;;;;;5001881;28;20117;-54
2021/06/14 04:39:53;;;;;;;18.88;14.40;;;14.10;99.90;;;;;;5000620;28;20054;-47
2021/06/14 04:42:19;;;;;;;22.75;13.65;;;14.20;99.90;;;;;;5006114;28;20533;-49
2021/06/14 04:44:45;;;;;;;22.55;14.40;;;14.30;99.90;;;;;;5006735;28;20045;-48
2021/06/14 04:47:11;;;;;;;20.50;14.05;;;14.40;99.90;;;;;;5022101;28;20547;-51
2021/06/14 04:49:37;;;;;;;18.63;13.65;;;14.50;99.90;;;;;;5027560;28;20038;-50
2021/06/14 04:52:04;;;;;;;20.73;13.80;;;14.60;99.90;;;;;;5026275;28;20041;-48
2021/06/14 04:54:30;;;;;;;17.08;12.93;;;14.80;99.90;;;;;;5027476;28;20161;-49
2021/06/14 04:56:56;;;;;;;17.27;11.77;;;14.90;99.90;;;;;;5026907;28;20127;-53
2021/06/14 04:59:24;;;;;;;17.98;12.85;;;15.00;99.90;;;;;;5026994;28;20041;-50
2021/06/14 05:01:50;;;;;;;17.08;11.55;;;15.20;99.90;;;;;;5024930;28;20120;-51
2021/06/14 05:04:16;;;;;;;18.20;12.10;;;15.30;99.90;;;;;;5029844;28;20126;-52
2021/06/14 05:06:42;;;;;;;14.23;10.40;;;15.40;99.90;;;;;;5025702;28;20112;-54
2021/06/14 05:09:09;;;;;;;17.17;11.13;;;15.80;99.90;;;;;;5026863;28;20037;-49
2021/06/14 05:11:35;;;;;;;25.35;11.55;;;16.30;99.90;;;;;;5025957;28;20053;-49
2021/06/14 05:14:01;;;;;;;15.82;9.52;;;16.70;99.90;;;;;;5026048;28;20048;-49
2021/06/14 05:16:28;;;;;;;18.30;10.40;;;17.10;99.90;;;;;;5028963;28;20121;-49
2021/06/14 05:18:55;;;;;;;20.58;10.88;;;17.40;99.00;;;;;;5022183;28;20535;-50
2021/06/14 05:21:21;;;;;;;22.08;10.73;;;17.70;98.70;;;;;;5022075;28;20157;-50
2021/06/14 05:23:48;;;;;;;21.77;12.70;;;17.90;97.70;;;;;;5023731;28;20637;-50
2021/06/14 05:26:14;;;;;;;54.53;45.65;;;18.10;97.40;;;;;;5018845;28;20057;-54
2021/06/14 05:28:41;;;;;;;34.83;27.75;;;18.40;97.10;;;;;;5022271;28;20501;-51
2021/06/14 05:31:07;;;;;;;15.73;10.15;;;18.60;95.20;;;;;;5024857;28;20394;-51
2021/06/14 05:33:33;;;;;;;36.92;32.95;;;18.70;95.50;;;;;;5025911;28;20566;-50
2021/06/14 05:35:59;;;;;;;17.55;11.40;;;18.90;95.00;;;;;;5024888;28;20041;-54
2021/06/14 05:38:25;;;;;;;24.35;17.80;;;19.10;94.60;;;;;;5022556;28;20046;-55
2021/06/14 05:40:51;;;;;;;16.77;10.23;;;19.10;93.80;;;;;;5020109;28;20073;-52
2021/06/14 05:43:18;;;;;;;17.05;12.65;;;19.40;93.10;;;;;;5023726;28;20041;-55
2021/06/14 05:45:44;;;;;;;13.43;9.80;;;19.50;92.90;;;;;;5026117;28;20087;-55
2021/06/14 05:48:10;;;;;;;13.88;9.85;;;19.70;92.50;;;;;;5025912;28;20033;-52
2021/06/14 05:50:36;;;;;;;15.73;10.82;;;19.80;91.80;;;;;;5026407;28;20045;-51
2021/06/14 05:53:02;;;;;;;13.52;9.50;;;20.00;91.50;;;;;;5031401;28;20539;-55
2021/06/14 05:55:29;;;;;;;20.77;18.15;;;20.20;91.20;;;;;;5026346;28;20632;-56
2021/06/14 05:57:56;;;;;;;20.60;17.17;;;20.50;90.50;;;;;;5017536;28;20053;-49
2021/06/14 06:00:23;;;;;;;18.60;13.82;;;20.60;89.30;;;;;;5017446;28;20049;-51
2021/06/14 06:02:49;;;;;;;28.92;24.30;;;20.60;88.30;;;;;;5013962;28;20037;-50
2021/06/14 06:05:15;;;;;;;15.02;12.90;;;20.90;87.80;;;;;;5009424;28;20870;-50
2021/06/14 06:07:42;;;;;;;12.27;9.70;;;21.10;86.70;;;;;;5011113;28;20062;-52
2021/06/14 06:10:10;;;;;;;13.07;11.50;;;21.20;84.30;;;;;;5012436;28;20096;-51
2021/06/14 06:12:38;;;;;;;10.88;8.00;;;21.20;83.20;;;;;;5022954;28;20056;-48
2021/06/14 06:15:07;;;;;;;12.02;8.35;;;21.40;82.70;;;;;;5021485;28;20049;-49
2021/06/14 06:17:33;;;;;;;12.82;10.90;;;21.50;79.60;;;;;;5025062;28;20060;-52
2021/06/14 06:20:02;;;;;;;16.73;13.80;;;21.60;80.80;;;;;;5031633;28;20405;-52
2021/06/14 06:22:28;;;;;;;15.63;12.13;;;21.70;79.30;;;;;;5028122;28;20048;-56
2021/06/14 06:24:54;;;;;;;10.77;7.57;;;22.00;78.00;;;;;;5027655;28;20418;-51
2021/06/14 06:27:21;;;;;;;29.55;26.55;;;22.00;76.20;;;;;;5023319;28;20524;-52
2021/06/14 06:29:47;;;;;;;18.52;13.30;;;21.90;73.70;;;;;;5031010;28;20132;-52
2021/06/14 06:32:13;;;;;;;10.77;7.68;;;22.20;73.80;;;;;;5026151;28;20222;-52
2021/06/14 06:34:39;;;;;;;10.23;7.43;;;22.40;74.20;;;;;;5024045;28;20037;-50
2021/06/14 06:37:05;;;;;;;16.98;11.40;;;22.50;70.40;;;;;;5024624;28;20052;-49
2021/06/14 06:39:31;;;;;;;12.95;7.22;;;22.60;73.10;;;;;;5024526;28;20074;-53
2021/06/14 06:42:00;;;;;;;10.93;7.78;;;22.70;71.40;;;;;;5025668;28;20092;-50
2021/06/14 06:44:26;;;;;;;12.75;9.63;;;22.80;69.20;;;;;;5026605;28;20532;-54
2021/06/14 06:46:53;;;;;;;9.80;6.68;;;23.10;66.80;;;;;;5025331;28;20380;-51
2021/06/14 06:49:19;;;;;;;11.52;7.82;;;23.00;66.60;;;;;;5024507;28;20049;-50
2021/06/14 06:51:45;;;;;;;9.52;6.18;;;23.10;66.50;;;;;;5023424;28;20572;-54
2021/06/14 06:54:12;;;;;;;24.25;8.23;;;23.40;63.10;;;;;;5028563;28;20037;-50
2021/06/14 06:56:49;;;;;;;15.00;6.55;;;23.60;65.70;;;;;;5024703;28;20049;-49
2021/06/14 06:59:17;;;;;;;10.82;6.35;;;23.70;62.90;;;;;;5021638;28;20045;-53
2021/06/14 07:01:46;;;;;;;13.82;8.02;;;23.90;63.20;;;;;;5022022;28;20053;-55
2021/06/14 07:04:13;;;;;;;12.23;6.55;;;24.00;64.10;;;;;;5018344;28;20200;-54
2021/06/14 07:06:39;;;;;;;11.77;6.07;;;23.80;61.10;;;;;;5017221;28;20156;-54
2021/06/14 07:09:06;;;;;;;12.13;5.65;;;23.90;59.70;;;;;;5019517;28;20128;-55
2021/06/14 07:11:33;;;;;;;11.45;5.95;;;23.80;60.00;;;;;;5024173;28;20053;-55
2021/06/14 07:14:01;;;;;;;9.95;5.60;;;23.80;60.20;;;;;;5026569;28;20033;-55
2021/06/14 07:16:27;;;;;;;9.48;5.57;;;23.90;59.60;;;;;;5025310;28;20508;-54
2021/06/14 07:18:54;;;;;;;20.42;17.45;;;24.00;60.30;;;;;;5028046;28;20041;-54
2021/06/14 07:21:24;;;;;;;10.18;5.82;;;24.20;60.70;;;;;;5022964;28;20049;-53
2021/06/14 07:23:50;;;;;;;9.65;6.43;;;24.40;61.10;;;;;;5024756;28;20149;-53
2021/06/14 07:26:17;;;;;;;11.52;5.60;;;24.60;59.60;;;;;;5021399;28;20107;-54
2021/06/14 07:28:43;;;;;;;10.73;6.22;;;24.70;59.40;;;;;;5017804;28;20680;-55
2021/06/14 07:31:10;;;;;;;8.70;5.95;;;24.80;58.50;;;;;;5022703;28;20549;-50
2021/06/14 07:33:37;;;;;;;9.43;6.55;;;25.00;59.80;;;;;;5027731;28;20470;-54
2021/06/14 07:36:06;;;;;;;13.18;8.73;;;25.00;57.40;;;;;;5024397;28;20057;-54
2021/06/14 07:38:32;;;;;;;9.70;5.30;;;25.20;57.00;;;;;;5021564;28;20057;-55
2021/06/14 07:41:01;;;;;;;11.60;9.25;;;25.20;56.30;;;;;;5023007;28;20042;-54
2021/06/14 07:43:27;;;;;;;8.65;4.53;;;25.40;56.30;;;;;;5021389;28;20041;-54
2021/06/14 07:45:54;;;;;;;38.20;34.45;;;25.40;54.00;;;;;;5027809;28;20038;-56
2021/06/14 07:48:22;;;;;;;9.82;6.00;;;25.60;54.50;;;;;;5023266;28;20060;-54
2021/06/14 07:50:49;;;;;;;10.98;6.78;;;25.60;52.20;;;;;;5022897;28;20045;-53
2021/06/14 07:53:16;;;;;;;13.13;7.88;;;25.80;52.90;;;;;;5025658;28;20099;-55
2021/06/14 07:55:42;;;;;;;13.63;11.23;;;25.70;51.70;;;;;;5018640;28;20665;-55
2021/06/14 07:58:09;;;;;;;8.65;5.50;;;25.80;51.40;;;;;;5021281;28;20041;-57
2021/06/14 08:00:35;;;;;;;10.27;6.88;;;25.80;51.50;;;;;;5021149;28;20045;-48
2021/06/14 08:03:02;;;;;;;15.57;6.60;;;26.10;51.90;;;;;;5016969;28;20088;-54
2021/06/14 08:05:28;;;;;;;14.30;10.15;;;26.20;50.70;;;;;;5016292;28;20046;-54
2021/06/14 08:07:54;;;;;;;10.27;6.55;;;26.20;50.00;;;;;;5019873;28;20045;-52
2021/06/14 08:10:21;;;;;;;13.00;11.35;;;26.50;49.10;;;;;;5027273;28;20127;-54
2021/06/14 08:12:50;;;;;;;8.10;5.25;;;26.40;49.30;;;;;;5022556;28;20046;-55
2021/06/14 08:15:21;;;;;;;12.25;7.53;;;26.70;49.80;;;;;;5028899;28;20493;-54
2021/06/14 08:17:48;;;;;;;10.50;6.93;;;27.10;50.50;;;;;;5017812;28;20042;-52
2021/06/14 08:20:33;;;;;;;12.05;5.47;;;27.20;50.00;;;;;;5021981;28;20511;-53
2021/06/14 08:25:44;;;;;;;22.00;16.00;;;27.20;47.90;;;;;;5019084;28;20470;-52
2021/06/14 08:28:10;;;;;;;17.33;15.45;;;27.30;46.30;;;;;;5024982;28;20068;-55
2021/06/14 08:30:37;;;;;;;16.58;11.90;;;27.30;45.00;;;;;;5025103;28;20051;-55
2021/06/14 08:33:04;;;;;;;9.85;4.97;;;27.40;45.80;;;;;;5025394;28;20050;-54
2021/06/14 08:35:30;;;;;;;11.40;7.35;;;27.30;45.90;;;;;;5024348;28;20048;-53
2021/06/14 08:37:57;;;;;;;9.80;5.22;;;27.50;45.50;;;;;;5037604;28;20065;-55
2021/06/14 08:40:29;;;;;;;14.93;10.55;;;27.60;45.50;;;;;;5026018;28;20104;-51
2021/06/14 08:43:04;;;;;;;11.93;6.13;;;27.70;44.50;;;;;;5021913;28;20053;-53
2021/06/14 08:45:38;;;;;;;13.65;8.23;;;27.60;44.50;;;;;;5024446;28;20038;-51
2021/06/14 08:48:07;;;;;;;11.60;7.78;;;27.80;43.80;;;;;;5018288;28;20045;-50
2021/06/14 08:50:34;;;;;;;11.02;6.03;;;27.80;45.40;;;;;;5026817;28;20103;-52
2021/06/14 08:53:00;;;;;;;9.90;6.95;;;28.00;45.70;;;;;;5019145;28;20046;-50
2021/06/14 08:55:27;;;;;;;15.23;10.20;;;28.20;44.10;;;;;;5021829;28;20514;-54
2021/06/14 08:57:53;;;;;;;10.98;7.88;;;28.10;43.20;;;;;;5020886;28;20096;-51
2021/06/14 09:00:24;;;;;;;11.63;6.30;;;27.90;43.00;;;;;;5022877;28;20050;-53
2021/06/14 09:02:51;;;;;;;11.82;6.32;;;27.80;42.80;;;;;;5014858;28;20041;-51
2021/06/14 09:05:20;;;;;;;8.88;5.38;;;27.80;43.30;;;;;;5029475;28;20770;-51
2021/06/14 09:07:51;;;;;;;11.98;7.03;;;27.80;42.60;;;;;;5024526;28;20080;-51
2021/06/14 09:10:31;;;;;;;;;;;27.80;42.50;;;;;;5015807;28;20057;-54
2021/06/14 09:13:18;;;;;;;9.82;5.50;;;27.90;43.80;;;;;;5023708;28;19921;-51
2021/06/14 09:15:56;;;;;;;8.95;5.00;;;28.00;44.10;;;;;;5031706;28;20366;-51
2021/06/14 09:18:27;;;;;;;10.93;7.35;;;28.50;44.30;;;;;;5023815;28;20394;-54
2021/06/14 09:21:02;;;;;;;12.10;5.13;;;28.50;43.30;;;;;;5033473;28;20044;-49
2021/06/14 09:23:48;;;;;;;10.43;7.32;;;29.00;42.80;;;;;;5025920;28;20052;-55
2021/06/14 09:26:25;;;;;;;9.73;5.18;;;28.80;40.30;;;;;;5021364;28;20841;-49
2021/06/14 09:29:02;;;;;;;8.85;5.05;;;28.80;42.10;;;;;;5022253;28;20053;-55
2021/06/14 09:31:38;;;;;;;9.23;4.65;;;28.90;40.80;;;;;;5026828;28;20038;-52
2021/06/14 09:34:05;;;;;;;9.45;5.28;;;29.00;39.20;;;;;;5025844;28;20052;-51
2021/06/14 09:36:33;;;;;;;11.77;4.90;;;29.00;41.00;;;;;;5023058;28;20391;-54
2021/06/14 09:39:15;;;;;;;11.45;5.10;;;29.00;40.50;;;;;;5025262;28;20482;-49
2021/06/14 09:41:51;;;;;;;10.35;4.63;;;29.30;38.70;;;;;;5018380;28;20075;-52
2021/06/14 09:44:31;;;;;;;12.65;5.25;;;29.30;39.60;;;;;;5020142;28;20481;-53
2021/06/14 09:47:06;;;;;;;13.88;8.48;;;29.10;38.80;;;;;;5021746;28;20151;-54
2021/06/14 09:49:34;;;;;;;15.90;12.52;;;29.20;38.50;;;;;;5027918;28;20854;-53
2021/06/14 09:52:07;;;;;;;17.77;15.30;;;29.40;38.30;;;;;;5024980;28;20061;-51
2021/06/14 09:54:35;;;;;;;16.05;11.13;;;30.00;37.00;;;;;;5023277;28;20042;-48
2021/06/14 09:57:04;;;;;;;9.38;5.97;;;29.90;37.50;;;;;;5014733;28;20050;-56
2021/06/14 09:59:39;;;;;;;9.13;4.95;;;29.80;37.60;;;;;;5022656;28;20037;-52
2021/06/14 10:02:17;;;;;;;12.30;8.27;;;29.80;37.60;;;;;;5023239;28;20049;-53
2021/06/14 10:04:47;;;;;;;12.13;8.43;;;30.20;38.60;;;;;;5018624;28;20045;-49
2021/06/14 10:07:18;;;;;;;9.57;6.25;;;30.30;38.40;;;;;;5018293;28;20560;-54
2021/06/14 10:09:45;;;;;;;;;;;30.40;38.40;;;;;;5019128;28;20054;-51
2021/06/14 10:12:25;;;;;;;9.13;6.32;;;30.10;37.40;;;;;;5021661;28;20433;-54
2021/06/14 10:14:58;;;;;;;8.75;5.35;;;30.20;36.50;;;;;;5014394;28;20533;-54
2021/06/14 10:17:40;;;;;;;7.82;4.30;;;30.10;35.30;;;;;;5022605;28;20060;-51
2021/06/14 10:20:13;;;;;;;10.13;5.03;;;30.20;35.00;;;;;;5020614;28;20115;-54
2021/06/14 10:22:41;;;;;;;8.98;4.53;;;30.10;36.80;;;;;;5018643;28;20042;-50
2021/06/14 10:25:09;;;;;;;8.10;4.43;;;30.30;36.90;;;;;;5022077;28;20050;-54
2021/06/14 10:27:36;;;;;;;8.18;4.65;;;30.20;36.70;;;;;;5015851;28;20069;-52
2021/06/14 10:30:06;;;;;;;9.45;5.03;;;30.30;36.60;;;;;;5023882;28;20045;-55
2021/06/14 10:32:37;;;;;;;;;;;30.30;37.20;;;;;;5020866;28;20770;-52
2021/06/14 10:35:05;;;;;;;;;;;30.30;37.50;;;;;;5022202;28;19932;-52
2021/06/14 10:37:35;;;;;;;8.93;4.40;;;29.90;36.40;;;;;;5021040;28;19975;-53
2021/06/14 10:40:04;;;;;;;15.07;10.75;;;30.20;39.40;;;;;;5017653;28;20041;-53
2021/06/14 10:42:30;;;;;;;12.32;6.32;;;30.60;38.40;;;;;;5020031;28;20482;-52
2021/06/14 10:44:58;;;;;;;16.10;8.55;;;30.60;37.20;;;;;;5019315;28;20095;-54
2021/06/14 10:47:24;;;;;;;10.95;7.32;;;31.00;37.60;;;;;;5021308;28;20108;-53
2021/06/14 10:49:55;;;;;;;19.35;16.25;;;30.80;36.70;;;;;;5017661;28;20064;-53
2021/06/14 10:52:22;;;;;;;17.73;14.63;;;31.30;36.50;;;;;;5018591;28;20091;-52
2021/06/14 10:54:48;;;;;;;9.25;4.85;;;31.20;36.10;;;;;;5023849;28;20160;-55
2021/06/14 10:57:18;;;;;;;11.05;5.53;;;31.10;35.50;;;;;;5017765;28;20073;-54
2021/06/14 10:59:46;;;;;;;11.93;8.73;;;31.30;36.40;;;;;;5016359;28;20037;-51
2021/06/14 11:02:14;;;;;;;8.27;4.03;;;31.60;37.00;;;;;;5021901;28;20044;-56
2021/06/14 11:04:42;;;;;;;9.32;5.45;;;31.40;36.00;;;;;;5026320;28;20041;-52
2021/06/14 11:07:08;;;;;;;7.80;4.40;;;31.50;35.40;;;;;;5010380;28;20207;-53
2021/06/14 11:09:45;;;;;;;9.95;4.60;;;31.50;35.20;;;;;;5020768;28;20038;-55
2021/06/14 11:12:31;;;;;;;8.35;4.45;;;31.20;34.20;;;;;;5015378;28;20042;-54
2021/06/14 11:15:08;;;;;;;8.40;4.32;;;31.30;35.10;;;;;;5022070;28;20050;-55
2021/06/14 11:17:37;;;;;;;9.23;4.13;;;31.40;36.50;;;;;;5027985;28;20413;-53
2021/06/14 11:20:08;;;;;;;10.07;5.63;;;31.60;35.90;;;;;;5016190;28;20056;-55
2021/06/14 11:22:40;;;;;;;8.20;4.55;;;31.80;35.80;;;;;;5023673;28;20482;-54
2021/06/14 11:25:27;;;;;;;8.38;5.20;;;31.90;35.70;;;;;;5021234;28;20056;-51
2021/06/14 11:28:01;;;;;;;5.57;3.58;;;31.80;37.00;;;;;;5025235;28;20076;-55
2021/06/14 11:30:34;;;;;;;5.65;3.40;;;32.20;35.90;;;;;;5040954;28;20939;-51
2021/06/14 11:33:04;;;;;;;8.55;5.05;;;31.40;35.00;;;;;;5023626;28;20168;-53
2021/06/14 11:35:33;;;;;;;8.85;3.72;;;31.50;35.40;;;;;;5025360;28;20477;-52
2021/06/14 11:38:04;;;;;;;8.70;3.40;;;31.50;35.40;;;;;;5010833;28;20042;-51
2021/06/14 11:40:36;;;;;;;7.32;3.80;;;31.70;36.40;;;;;;5021305;28;20054;-51
2021/06/14 11:43:11;;;;;;;6.38;3.60;;;31.80;36.00;;;;;;5027250;28;20075;-52
2021/06/14 11:45:45;;;;;;;18.38;16.50;;;32.20;34.60;;;;;;5020060;28;20103;-49
2021/06/14 11:48:23;;;;;;;9.63;4.13;;;32.20;34.40;;;;;;5018126;28;20057;-57
2021/06/14 11:51:07;;;;;;;12.73;8.88;;;31.60;34.50;;;;;;5017881;28;20448;-53
2021/06/14 11:53:54;;;;;;;8.13;3.80;;;31.60;36.20;;;;;;5026449;28;20049;-51
2021/06/14 11:56:27;;;;;;;10.05;6.45;;;31.50;35.90;;;;;;5023024;28;20037;-54
2021/06/14 11:58:54;;;;;;;10.25;4.75;;;31.60;34.30;;;;;;5026361;28;20056;-54
2021/06/14 12:01:28;;;;;;;8.65;4.32;;;31.80;35.10;;;;;;5014092;28;20375;-55
2021/06/14 12:03:58;;;;;;;10.25;7.15;;;31.90;36.10;;;;;;5027687;28;20068;-52
2021/06/14 12:06:25;;;;;;;8.27;4.68;;;31.80;35.80;;;;;;5027110;28;20054;-55
2021/06/14 12:08:53;;;;;;;8.07;4.00;;;32.00;36.20;;;;;;5021480;28;20045;-54
2021/06/14 12:11:25;;;;;;;15.98;13.32;;;32.10;36.20;;;;;;5020431;28;20068;-53
2021/06/14 12:13:51;;;;;;;9.95;7.93;;;31.80;34.40;;;;;;5035242;28;20045;-53
2021/06/14 12:16:24;;;;;;;9.05;5.22;;;32.10;36.10;;;;;;5027252;28;20817;-55
2021/06/14 12:19:00;;;;;;;11.45;7.72;;;32.00;36.40;;;;;;5025504;28;20046;-55
2021/06/14 12:21:29;;;;;;;8.50;4.85;;;31.70;36.10;;;;;;5014678;28;20457;-54
2021/06/14 12:23:57;;;;;;;10.85;5.95;;;31.50;36.30;;;;;;5027431;28;20041;-54
2021/06/14 12:26:24;;;;;;;10.38;6.65;;;31.60;35.40;;;;;;5032470;28;20053;-53
2021/06/14 12:28:50;;;;;;;9.15;5.10;;;31.80;35.80;;;;;;5024139;28;20060;-49
2021/06/14 12:31:16;;;;;;;12.20;7.43;;;31.80;36.50;;;;;;5033316;28;20143;-53
2021/06/14 12:33:44;;;;;;;7.47;5.22;;;31.60;36.20;;;;;;5032725;28;20127;-56
2021/06/14 12:36:12;;;;;;;9.23;5.53;;;32.00;37.50;;;;;;5016452;28;20202;-52
2021/06/14 12:38:48;;;;;;;10.35;6.65;;;32.10;36.20;;;;;;5024757;28;20042;-53
2021/06/14 12:41:17;;;;;;;9.82;5.55;;;31.80;35.00;;;;;;5012793;28;20095;-54
2021/06/14 12:43:44;;;;;;;6.47;3.60;;;31.90;36.30;;;;;;5026228;28;20037;-51
2021/06/14 12:46:11;;;;;;;8.68;4.85;;;32.00;35.10;;;;;;5028926;28;20362;-53
2021/06/14 12:48:38;;;;;;;9.73;5.28;;;32.20;35.50;;;;;;5031569;28;20045;-51
2021/06/14 12:51:08;;;;;;;10.07;5.20;;;32.30;35.20;;;;;;5031426;28;20049;-53